Main page
METAR-TAF:

METAR-TAF

Airports :

Stornoway Airport

Stornoway, Scotland

latitude: 58-13N, longitude: 006-19W, elevation: 9 m

Current weather observation

The report was made 32 minutes ago, at 00:20 UTC
Wind 9 kt from the East
Temperature 7°C
Humidity 76%
Pressure 1022 hPa
Visibility 10 km or more

METAR: EGPO 210020Z AUTO 08009KT 9999 FEW023/// SCT027/// BKN037/// 07/03 Q1022

Time: 00:52 (00:52 UTC)

Forecast

The report was made 1 hour and 50 minutes ago, at 23:02 UTC
Forecast valid from 21 at 00 UTC to 21 at 09 UTC
Wind 12 kt from the East
Visibility 10 km or more
Scattered clouds at a height of 3500 ft
Probability 40% :
Temporary
from 21 at 00 UTC to 21 at 09 UTC
Wind 18 kt from the East with gusts up to 28 kt

TAF: EGPO 202302Z 2100/2109 09012KT 9999 SCT035 PROB40 TEMPO 2100/2109 08018G28KT

Weather observations and forecasts of more than 4000 airports (METAR and TAF reports).

The available stations are represented by yellow and red dots on the map.

Hover mouse over dot to see the name of the station.

Then click to see weather observations and forecasts.

To change the map : click on the green buttons with a black cross to zoom in, on the green button with a dash to zoom out, or on the green arrows for adjacent maps.


METAR-TAF: